Aeroporto :
LOGIN :

Iscrizione | Disclaimer

   EN    FR    IT 

 










Sommario :    VFR   VFR Marginale   IFR   IFR Intensivo   IFR Molto Intensivo
Visibilità : 
Base nubi : 
>= 8 km
>= 3000ft
5 / 8 km
1000 / 3000 ft
1500m / 5 km
500 / 1000 ft
800 / 1500m
200 / 500 ft
< 800m
< 200 ft
Simboli :   Temporali  Nebbia  Neve Forte  Precipitazioni Forti  Vento > 20 kt
SIGMETs :   Varie  Temporali  Ghiacco  Turbolenza  Onda orograficha  Ceneri Vulcaniche






- Altitudine del aeroporto : 256 ft
- Codice IATA : CFR


LFRK - Caen

ULTIMO METAR :
  • 281830Z AUTO 03009KT CAVOK 17/11 Q1027 NOSIG

METARs OBSOLETI :
  • 281800Z AUTO 03010KT 360V070 CAVOK 18/10 Q1027 NOSIG
  • 281730Z AUTO 03010KT 360V060 CAVOK 18/10 Q1027 NOSIG
  • 281700Z AUTO 03008KT 350V060 CAVOK 19/10 Q1027 NOSIG
  • 281630Z AUTO 02012KT CAVOK 19/10 Q1028 NOSIG
  • 281600Z AUTO 02011KT CAVOK 19/10 Q1028 NOSIG

TAF TAF LFRK
Valido dal 28 a 18 ore il 29 a 18 ore UTC


281700Z 2818/2918 05008KT CAVOK
BECMG 2821/2824 08004KT
BECMG 2912/2914 02013KT
Met : +33 2 31 26 68 11



MetMap, La meteo Aeronautica in un colpo d'occhio ! - Copyright ORBIFLY Dicembre 2007 - Disclaimer

ORBIFLY MET'MAP TEAM :

Programmazione e sviluppo : Alexandra Zaïnal
Concezione : Baudouin d'Aumeries
Aiuto per la programmazione : Marc-Olivier Méhu
Supporto tecnico e logistico : Manuel Goepfert
Aiuto per la traduzione : Arnaldo La Scala

Contatto : metmap@orbifly.com




FONTI E CREDITI :

   NOAA